createdAt,value
2023-11-03T00:00:35.460Z,1.00
2023-11-03T00:03:06.897Z,1.17
2023-11-03T00:05:34.171Z,0.80
2023-11-03T00:08:01.281Z,0.98
2023-11-03T00:10:28.568Z,0.98
2023-11-03T00:12:55.510Z,0.80
2023-11-03T00:15:23.617Z,1.15
2023-11-03T00:17:50.649Z,1.17
2023-11-03T00:20:17.730Z,0.98
2023-11-03T00:22:44.676Z,0.85
2023-11-03T00:25:15.035Z,0.77
2023-11-03T00:27:44.096Z,1.13
2023-11-03T00:30:12.757Z,1.20
2023-11-03T00:32:40.213Z,1.10
2023-11-03T00:35:09.514Z,0.90
2023-11-03T00:37:45.902Z,0.85
2023-11-03T00:40:14.445Z,0.80
2023-11-03T00:42:41.628Z,1.00
2023-11-03T00:45:09.105Z,0.90
2023-11-03T00:47:36.119Z,0.90
2023-11-03T00:50:03.442Z,0.85
2023-11-03T00:52:30.573Z,0.80
2023-11-03T00:54:57.562Z,1.40
2023-11-03T00:57:24.542Z,0.98
2023-11-03T00:59:51.499Z,0.93
2023-11-03T01:02:19.387Z,0.85
2023-11-03T01:04:46.628Z,0.88
2023-11-03T01:07:13.886Z,0.90
2023-11-03T01:09:42.459Z,1.00
2023-11-03T01:12:09.542Z,0.80
2023-11-03T01:14:36.484Z,1.05
2023-11-03T01:17:04.031Z,0.80
2023-11-03T01:19:32.296Z,0.80
2023-11-03T01:22:00.774Z,0.65
2023-11-03T01:24:28.094Z,0.80
2023-11-03T01:26:55.170Z,1.42
2023-11-03T01:29:22.631Z,0.80
2023-11-03T01:31:49.560Z,0.95
2023-11-03T01:34:16.607Z,0.90
2023-11-03T01:36:44.234Z,0.82
2023-11-03T01:39:11.465Z,0.80
2023-11-03T01:41:38.364Z,1.00
2023-11-03T01:44:08.544Z,0.82
2023-11-03T01:46:38.389Z,1.20
2023-11-03T01:49:07.690Z,1.17
2023-11-03T01:51:35.431Z,0.80
2023-11-03T01:54:06.575Z,1.08
2023-11-03T01:56:37.409Z,0.82
2023-11-03T01:59:07.542Z,1.30
2023-11-03T02:01:43.044Z,1.08
2023-11-03T02:04:10.181Z,1.20
2023-11-03T02:06:37.404Z,1.20
2023-11-03T02:09:06.205Z,0.93
2023-11-03T02:11:33.354Z,1.05
2023-11-03T02:14:00.949Z,0.80
2023-11-03T02:16:29.130Z,1.10
2023-11-03T02:18:56.190Z,1.30
2023-11-03T02:21:23.123Z,0.90
2023-11-03T02:23:50.087Z,0.77
2023-11-03T02:26:17.000Z,0.90
2023-11-03T02:28:43.853Z,1.00
2023-11-03T02:31:10.934Z,0.95
2023-11-03T02:33:38.720Z,1.00
2023-11-03T02:36:06.248Z,1.17
2023-11-03T02:38:33.191Z,1.13
2023-11-03T02:41:00.003Z,0.90
2023-11-03T02:43:26.934Z,0.85
2023-11-03T02:45:53.898Z,0.80
2023-11-03T02:48:21.153Z,1.30
2023-11-03T02:50:47.999Z,1.00
2023-11-03T02:53:15.196Z,1.08
2023-11-03T02:55:42.183Z,1.20
2023-11-03T02:58:09.517Z,1.58
2023-11-03T03:00:38.097Z,1.15
2023-11-03T03:03:08.493Z,1.25
2023-11-03T03:05:37.433Z,1.00
2023-11-03T03:08:05.696Z,0.90
2023-11-03T03:10:34.703Z,0.98
2023-11-03T03:13:03.886Z,0.98
2023-11-03T03:15:31.776Z,1.10
2023-11-03T03:17:58.651Z,0.98
2023-11-03T03:20:26.458Z,1.20
2023-11-03T03:22:53.355Z,1.30
2023-11-03T03:25:20.474Z,1.00
2023-11-03T03:27:47.349Z,0.80
2023-11-03T03:30:14.532Z,0.77
2023-11-03T03:32:41.686Z,0.88
2023-11-03T03:35:09.599Z,1.15
2023-11-03T03:37:37.250Z,0.77
2023-11-03T03:40:04.799Z,1.10
2023-11-03T03:42:31.656Z,0.82
2023-11-03T03:44:59.044Z,1.02
2023-11-03T03:47:25.989Z,0.70
2023-11-03T03:49:52.887Z,0.70
2023-11-03T03:52:19.874Z,0.68
2023-11-03T03:54:46.743Z,0.90
2023-11-03T03:57:13.611Z,0.80
2023-11-03T03:59:40.753Z,0.80
2023-11-03T04:02:07.710Z,1.08
2023-11-03T04:04:34.623Z,0.98
2023-11-03T04:07:01.560Z,0.98
2023-11-03T04:09:28.572Z,0.70
2023-11-03T04:11:55.674Z,0.60
2023-11-03T04:14:24.052Z,0.98
2023-11-03T04:16:52.709Z,0.80
2023-11-03T04:19:19.543Z,0.70
2023-11-03T04:21:47.102Z,1.05
2023-11-03T04:24:13.980Z,1.08
2023-11-03T04:26:41.410Z,1.15
2023-11-03T04:29:08.360Z,0.82
2023-11-03T04:31:35.578Z,0.80
2023-11-03T04:34:02.888Z,1.17
2023-11-03T04:36:30.506Z,1.25
2023-11-03T04:38:57.460Z,1.10
2023-11-03T04:41:24.301Z,1.50
2023-11-03T04:43:51.161Z,0.80
2023-11-03T04:46:18.510Z,1.15
2023-11-03T04:48:46.655Z,1.20
2023-11-03T04:51:14.845Z,1.52
2023-11-03T04:53:42.976Z,1.30
2023-11-03T04:56:10.339Z,1.95
2023-11-03T04:58:37.347Z,1.10
2023-11-03T05:01:04.767Z,1.42
2023-11-03T05:03:33.057Z,1.17
2023-11-03T05:06:00.017Z,1.23
2023-11-03T05:08:26.907Z,1.10
2023-11-03T05:10:53.996Z,0.93
2023-11-03T05:13:20.897Z,1.60
2023-11-03T05:15:48.722Z,1.40
2023-11-03T05:18:15.846Z,1.25
2023-11-03T05:20:43.600Z,1.60
2023-11-03T05:23:10.472Z,1.27
2023-11-03T05:25:37.403Z,1.13
2023-11-03T05:28:04.450Z,1.42
2023-11-03T05:30:31.480Z,1.25
2023-11-03T05:32:58.561Z,1.40
2023-11-03T05:35:25.499Z,1.20
2023-11-03T05:37:52.810Z,1.50
2023-11-03T05:40:19.928Z,1.48
2023-11-03T05:42:47.199Z,1.00
2023-11-03T05:45:14.273Z,1.20
2023-11-03T05:47:41.154Z,1.80
2023-11-03T05:50:08.732Z,1.50
2023-11-03T05:52:35.731Z,1.55
2023-11-03T05:55:03.598Z,1.60
2023-11-03T05:57:30.546Z,1.70
2023-11-03T05:59:57.742Z,1.45
2023-11-03T06:02:24.666Z,1.60
2023-11-03T06:04:51.782Z,1.50
2023-11-03T06:07:18.844Z,1.40
2023-11-03T06:09:46.037Z,1.60
2023-11-03T06:12:12.996Z,1.60
2023-11-03T06:14:39.834Z,1.60
2023-11-03T06:17:06.804Z,1.85
2023-11-03T06:19:35.066Z,1.90
2023-11-03T06:22:02.343Z,1.75
2023-11-03T06:24:29.244Z,1.73
2023-11-03T06:27:00.593Z,1.50
2023-11-03T06:29:27.892Z,1.75
2023-11-03T06:31:55.117Z,1.40
2023-11-03T06:34:23.076Z,1.60
2023-11-03T06:36:50.162Z,1.55
2023-11-03T06:39:17.579Z,2.40
2023-11-03T06:41:44.995Z,2.08
2023-11-03T06:44:13.005Z,1.85
2023-11-03T06:46:40.414Z,2.10
2023-11-03T06:49:07.679Z,1.88
2023-11-03T06:51:34.819Z,2.42
2023-11-03T06:54:02.844Z,2.00
2023-11-03T06:56:29.756Z,2.60
2023-11-03T06:58:56.732Z,2.63
2023-11-03T07:01:25.055Z,2.10
2023-11-03T07:03:52.805Z,3.33
2023-11-03T07:06:21.865Z,2.78
2023-11-03T07:08:49.391Z,3.28
2023-11-03T07:11:17.508Z,2.92
2023-11-03T07:13:44.697Z,3.15
2023-11-03T07:16:14.063Z,2.17
2023-11-03T07:18:48.525Z,2.40
2023-11-03T07:21:16.509Z,2.80
2023-11-03T07:23:44.203Z,2.40
2023-11-03T07:26:14.346Z,3.17
2023-11-03T07:28:43.382Z,2.28
2023-11-03T07:31:12.795Z,2.42
2023-11-03T07:33:43.703Z,2.83
2023-11-03T07:36:11.850Z,2.53
2023-11-03T07:38:40.498Z,3.05
2023-11-03T07:41:10.339Z,2.40
2023-11-03T07:43:40.551Z,2.58
2023-11-03T07:46:07.924Z,2.67
2023-11-03T07:48:35.073Z,2.58
2023-11-03T07:51:03.489Z,1.88
2023-11-03T07:53:30.497Z,2.47
2023-11-03T07:55:57.492Z,2.20
2023-11-03T07:58:24.418Z,2.10
2023-11-03T08:00:51.596Z,2.38
2023-11-03T08:03:19.098Z,2.47
2023-11-03T08:05:46.659Z,2.35
2023-11-03T08:08:15.987Z,2.35
2023-11-03T08:10:43.268Z,2.05
2023-11-03T08:13:11.333Z,1.88
2023-11-03T08:15:38.596Z,2.13
2023-11-03T08:18:08.645Z,2.15
2023-11-03T08:20:35.763Z,2.35
2023-11-03T08:23:02.791Z,2.47
2023-11-03T08:25:31.159Z,1.95
2023-11-03T08:28:02.418Z,2.60
2023-11-03T08:30:29.530Z,1.60
2023-11-03T08:32:56.558Z,2.05
2023-11-03T08:35:24.042Z,2.03
2023-11-03T08:37:56.684Z,1.90
2023-11-03T08:40:24.091Z,2.00
2023-11-03T08:42:51.818Z,2.33
2023-11-03T08:45:20.767Z,1.65
2023-11-03T08:47:48.022Z,1.77
2023-11-03T08:50:17.809Z,2.03
2023-11-03T08:52:46.252Z,1.70
2023-11-03T08:55:14.892Z,1.98
2023-11-03T08:57:43.626Z,2.17
2023-11-03T09:00:13.338Z,2.40
2023-11-03T09:02:42.897Z,2.17
2023-11-03T09:05:12.141Z,2.65
2023-11-03T09:07:41.584Z,2.40
2023-11-03T09:10:13.673Z,2.58
2023-11-03T09:12:44.042Z,2.20
2023-11-03T09:15:11.779Z,1.88
2023-11-03T09:17:38.916Z,2.40
2023-11-03T09:20:06.578Z,2.53
2023-11-03T09:22:36.642Z,1.92
2023-11-03T09:25:06.093Z,2.25
2023-11-03T09:27:34.723Z,1.75
2023-11-03T09:30:03.323Z,2.33
2023-11-03T09:32:31.920Z,2.15
2023-11-03T09:34:59.745Z,1.85
2023-11-03T09:37:26.655Z,2.22
2023-11-03T09:39:53.651Z,2.67
2023-11-03T09:42:21.084Z,3.10
2023-11-03T09:44:48.246Z,1.60
2023-11-03T09:47:16.918Z,2.17
2023-11-03T09:49:44.413Z,2.00
2023-11-03T09:52:14.801Z,2.17
2023-11-03T09:54:42.202Z,2.75
2023-11-03T09:57:12.171Z,2.35
2023-11-03T09:59:40.756Z,2.05
2023-11-03T10:02:18.493Z,2.10
2023-11-03T10:04:45.792Z,2.30
2023-11-03T10:07:14.972Z,2.28
2023-11-03T10:09:43.809Z,2.15
2023-11-03T10:12:18.808Z,1.98
2023-11-03T10:14:48.164Z,2.45
2023-11-03T10:17:16.915Z,2.10
2023-11-03T10:19:45.006Z,2.15
2023-11-03T10:22:12.392Z,2.33
2023-11-03T10:24:40.686Z,1.90
2023-11-03T10:27:08.213Z,2.38
2023-11-03T10:29:35.694Z,2.55
2023-11-03T10:32:02.637Z,1.95
2023-11-03T10:34:30.726Z,2.30
2023-11-03T10:36:58.902Z,2.20
2023-11-03T10:39:26.443Z,2.42
2023-11-03T10:41:54.878Z,2.08
2023-11-03T10:44:31.528Z,1.90
2023-11-03T10:47:14.155Z,1.90
2023-11-03T10:49:44.362Z,2.53
2023-11-03T10:52:14.733Z,2.42
2023-11-03T10:55:08.824Z,2.20
2023-11-03T10:57:40.772Z,2.22
2023-11-03T11:00:18.664Z,2.00
2023-11-03T11:03:27.050Z,2.45
2023-11-03T11:06:13.024Z,2.78
2023-11-03T11:08:42.885Z,2.10
2023-11-03T11:11:11.374Z,1.92
2023-11-03T11:13:44.417Z,2.38
2023-11-03T11:16:13.414Z,2.25
2023-11-03T11:18:57.746Z,1.67
2023-11-03T11:21:39.177Z,1.70
2023-11-03T11:24:06.716Z,2.08
2023-11-03T11:26:36.014Z,1.65
2023-11-03T11:29:04.711Z,2.10
2023-11-03T11:31:31.790Z,1.70
2023-11-03T11:34:04.686Z,2.05
2023-11-03T11:36:34.356Z,1.77
2023-11-03T11:39:14.800Z,1.83
2023-11-03T11:42:01.000Z,1.65
2023-11-03T11:44:34.901Z,2.03
2023-11-03T11:47:02.573Z,2.00
2023-11-03T11:49:32.371Z,2.50
2023-11-03T11:52:02.536Z,2.03
2023-11-03T11:54:29.790Z,1.80
2023-11-03T11:56:58.075Z,2.10
2023-11-03T11:59:26.275Z,2.00
2023-11-03T12:01:54.819Z,2.58
2023-11-03T12:04:24.492Z,1.65
2023-11-03T12:06:51.890Z,2.03
2023-11-03T12:09:19.426Z,1.88
2023-11-03T12:11:46.415Z,1.80
2023-11-03T12:14:13.960Z,2.03
2023-11-03T12:16:41.491Z,1.85
2023-11-03T12:19:10.699Z,2.17
2023-11-03T12:21:42.844Z,2.75
2023-11-03T12:24:10.177Z,1.67
2023-11-03T12:26:37.333Z,1.75
2023-11-03T12:29:30.304Z,1.85
2023-11-03T12:32:02.677Z,1.83
2023-11-03T12:34:31.348Z,2.40
2023-11-03T12:37:00.183Z,2.25
2023-11-03T12:39:28.271Z,1.33
2023-11-03T12:42:10.554Z,1.88
2023-11-03T12:45:06.401Z,1.48
2023-11-03T12:47:52.555Z,1.80
2023-11-03T12:50:25.798Z,1.73
2023-11-03T12:53:06.428Z,1.83
2023-11-03T12:55:37.624Z,1.95
2023-11-03T12:58:15.341Z,1.92
2023-11-03T13:00:43.077Z,2.10
2023-11-03T13:03:10.080Z,2.00
2023-11-03T13:05:38.714Z,2.15
2023-11-03T13:08:06.368Z,1.55
2023-11-03T13:10:33.489Z,1.98
2023-11-03T13:13:01.322Z,1.83
2023-11-03T13:15:28.983Z,1.77
2023-11-03T13:17:56.040Z,1.80
2023-11-03T13:20:23.164Z,1.80
2023-11-03T13:22:51.461Z,1.98
2023-11-03T13:25:20.816Z,1.73
2023-11-03T13:27:48.123Z,1.98
2023-11-03T13:30:15.131Z,2.50
2023-11-03T13:32:43.547Z,2.10
2023-11-03T13:35:12.000Z,1.80
2023-11-03T13:37:39.314Z,1.60
2023-11-03T13:40:07.915Z,1.70
2023-11-03T13:42:35.114Z,1.90
2023-11-03T13:45:02.713Z,1.85
2023-11-03T13:47:29.740Z,1.70
2023-11-03T13:50:03.881Z,1.55
2023-11-03T13:52:36.050Z,1.85
2023-11-03T13:55:05.416Z,1.83
2023-11-03T13:57:32.533Z,1.65
2023-11-03T13:59:59.508Z,1.33
2023-11-03T14:02:26.637Z,1.58
2023-11-03T14:04:56.662Z,1.63
2023-11-03T14:07:23.896Z,1.48
2023-11-03T14:09:51.167Z,1.40
2023-11-03T14:12:21.330Z,1.75
2023-11-03T14:14:49.782Z,1.40
2023-11-03T14:17:16.650Z,1.40
2023-11-03T14:19:43.542Z,1.40
2023-11-03T14:22:11.098Z,1.35
2023-11-03T14:24:37.942Z,1.65
2023-11-03T14:27:07.460Z,1.23
2023-11-03T14:29:37.692Z,1.42
2023-11-03T14:32:06.237Z,1.92
2023-11-03T14:34:33.273Z,1.30
2023-11-03T14:37:00.859Z,1.40
2023-11-03T14:39:29.366Z,1.27
2023-11-03T14:41:56.345Z,1.15
2023-11-03T14:44:23.177Z,1.20
2023-11-03T14:46:50.555Z,1.33
2023-11-03T14:49:20.573Z,1.20
2023-11-03T14:51:47.427Z,1.52
2023-11-03T14:54:15.952Z,1.33
2023-11-03T14:56:43.010Z,1.38
2023-11-03T14:59:10.802Z,1.20
2023-11-03T15:01:37.943Z,1.60
2023-11-03T15:04:06.021Z,1.33
2023-11-03T15:06:34.021Z,1.60
2023-11-03T15:09:01.594Z,1.75
2023-11-03T15:11:29.103Z,1.10
2023-11-03T15:13:59.557Z,1.33
2023-11-03T15:16:30.668Z,1.38
2023-11-03T15:18:59.779Z,1.50
2023-11-03T15:21:26.842Z,1.20
2023-11-03T15:23:54.164Z,1.02
2023-11-03T15:26:21.175Z,1.58
2023-11-03T15:28:48.127Z,1.10
2023-11-03T15:31:15.074Z,1.70
2023-11-03T15:33:42.063Z,1.58
2023-11-03T15:36:09.980Z,1.20
2023-11-03T15:38:37.672Z,1.27
2023-11-03T15:41:04.942Z,1.25
2023-11-03T15:43:35.678Z,1.45
2023-11-03T15:46:05.651Z,1.60
2023-11-03T15:48:34.289Z,1.10
2023-11-03T15:51:01.572Z,1.15
2023-11-03T15:53:28.928Z,1.13
2023-11-03T15:55:56.993Z,1.27
2023-11-03T15:58:24.198Z,1.20
2023-11-03T16:00:54.496Z,1.23
2023-11-03T16:03:22.780Z,1.17
2023-11-03T16:05:50.921Z,1.20
2023-11-03T16:08:18.395Z,1.30
2023-11-03T16:10:46.504Z,1.42
2023-11-03T16:13:14.955Z,1.20
2023-11-03T16:15:42.785Z,1.42
2023-11-03T16:18:11.018Z,1.30
2023-11-03T16:20:38.021Z,1.27
2023-11-03T16:23:05.080Z,1.13
2023-11-03T16:25:32.012Z,1.30
2023-11-03T16:27:59.149Z,1.02
2023-11-03T16:30:26.430Z,1.30
2023-11-03T16:32:54.090Z,1.67
2023-11-03T16:35:24.178Z,1.63
2023-11-03T16:37:51.086Z,1.67
2023-11-03T16:40:21.573Z,1.73
2023-11-03T16:42:48.613Z,1.65
2023-11-03T16:45:16.085Z,1.30
2023-11-03T16:47:43.391Z,1.17
2023-11-03T16:50:12.909Z,1.25
2023-11-03T16:52:43.397Z,1.48
2023-11-03T16:55:14.370Z,1.20
2023-11-03T16:57:42.791Z,1.50
2023-11-03T17:00:13.585Z,1.50
2023-11-03T17:02:46.049Z,1.48
2023-11-03T17:05:16.697Z,1.48
2023-11-03T17:07:44.787Z,1.50
2023-11-03T17:10:12.623Z,1.70
2023-11-03T17:12:52.943Z,1.63
2023-11-03T17:15:27.487Z,1.80
2023-11-03T17:17:54.463Z,1.50
2023-11-03T17:20:22.117Z,1.52
2023-11-03T17:22:49.139Z,1.42
2023-11-03T17:25:18.950Z,1.30
2023-11-03T17:27:45.906Z,1.80
2023-11-03T17:30:16.598Z,1.83
2023-11-03T17:32:47.239Z,1.40
2023-11-03T17:35:16.307Z,2.03
2023-11-03T17:37:43.190Z,1.50
2023-11-03T17:40:10.740Z,1.42
2023-11-03T17:42:38.105Z,1.52
2023-11-03T17:45:06.009Z,1.30
2023-11-03T17:47:33.831Z,1.55
2023-11-03T17:50:01.003Z,1.60
2023-11-03T17:52:28.032Z,1.60
2023-11-03T17:54:54.993Z,1.17
2023-11-03T17:57:22.300Z,1.42
2023-11-03T17:59:49.754Z,1.40
2023-11-03T18:02:16.610Z,1.45
2023-11-03T18:04:44.342Z,1.45
2023-11-03T18:07:13.161Z,1.23
2023-11-03T18:09:40.070Z,1.23
2023-11-03T18:12:07.422Z,1.33
2023-11-03T18:14:34.381Z,1.27
2023-11-03T18:17:01.292Z,1.10
2023-11-03T18:19:28.967Z,1.40
2023-11-03T18:21:55.898Z,1.35
2023-11-03T18:24:24.116Z,1.08
2023-11-03T18:26:51.129Z,2.20
2023-11-03T18:29:18.625Z,1.67
2023-11-03T18:31:48.620Z,1.00
2023-11-03T18:34:15.747Z,1.35
2023-11-03T18:36:43.849Z,1.63
2023-11-03T18:39:10.637Z,1.38
2023-11-03T18:41:37.507Z,1.63
2023-11-03T18:44:04.722Z,1.45
2023-11-03T18:46:31.631Z,1.50
2023-11-03T18:48:58.615Z,1.77
2023-11-03T18:51:28.762Z,1.30
2023-11-03T18:57:45.198Z,1.25
2023-11-03T19:02:19.324Z,1.33
2023-11-03T19:07:32.616Z,0.90
2023-11-03T19:09:54.752Z,1.13
2023-11-03T19:12:21.838Z,1.30
2023-11-03T19:14:49.239Z,1.15
2023-11-03T19:17:16.090Z,0.80
2023-11-03T19:19:43.089Z,1.10
2023-11-03T19:22:12.176Z,1.20
2023-11-03T19:24:42.869Z,1.23
2023-11-03T19:27:09.803Z,0.90
2023-11-03T19:29:37.551Z,1.00
2023-11-03T19:32:08.471Z,1.10
2023-11-03T19:34:36.256Z,1.00
2023-11-03T19:37:03.087Z,1.08
2023-11-03T19:39:30.368Z,0.93
2023-11-03T19:41:57.291Z,0.98
2023-11-03T19:44:24.212Z,0.98
2023-11-03T19:46:51.215Z,1.23
2023-11-03T19:49:19.798Z,0.93
2023-11-03T19:51:46.781Z,0.90
2023-11-03T19:54:14.071Z,1.15
2023-11-03T19:56:41.582Z,1.30
2023-11-03T19:59:08.973Z,1.17
2023-11-03T20:01:35.984Z,1.17
2023-11-03T20:04:05.768Z,1.10
2023-11-03T20:06:32.715Z,1.42
2023-11-03T20:08:59.861Z,1.30
2023-11-03T20:11:26.672Z,1.67
2023-11-03T20:13:53.533Z,1.48
2023-11-03T20:16:21.418Z,1.58
2023-11-03T20:18:49.010Z,1.90
2023-11-03T20:21:17.517Z,1.65
2023-11-03T20:23:44.510Z,1.67
2023-11-03T20:26:11.450Z,1.90
2023-11-03T20:28:38.349Z,1.65
2023-11-03T20:31:05.621Z,1.92
2023-11-03T20:33:33.101Z,1.70
2023-11-03T20:36:00.896Z,1.50
2023-11-03T20:38:27.852Z,1.63
2023-11-03T20:40:56.979Z,1.50
2023-11-03T20:43:24.310Z,1.80
2023-11-03T20:45:51.402Z,1.60
2023-11-03T20:48:19.084Z,1.95
2023-11-03T20:50:46.538Z,1.80
2023-11-03T20:53:13.475Z,1.45
2023-11-03T20:55:40.595Z,1.70
2023-11-03T20:58:07.812Z,1.80
2023-11-03T21:00:34.738Z,1.88
2023-11-03T21:03:01.827Z,1.90
2023-11-03T21:05:29.202Z,1.73
2023-11-03T21:07:56.059Z,1.75
2023-11-03T21:10:22.981Z,1.65
2023-11-03T21:12:49.932Z,1.35
2023-11-03T21:15:16.980Z,1.90
2023-11-03T21:17:44.113Z,1.92
2023-11-03T21:20:12.098Z,1.80
2023-11-03T21:22:39.741Z,1.58
2023-11-03T21:25:11.940Z,1.75
2023-11-03T21:27:38.987Z,1.65
2023-11-03T21:30:09.387Z,1.73
2023-11-03T21:32:36.900Z,1.77
2023-11-03T21:35:10.197Z,1.60
2023-11-03T21:37:37.566Z,1.50
2023-11-03T21:40:05.169Z,1.35
2023-11-03T21:42:32.856Z,1.42
2023-11-03T21:44:59.827Z,1.55
2023-11-03T21:47:26.710Z,1.58
2023-11-03T21:49:53.606Z,1.48
2023-11-03T21:52:20.502Z,1.27
2023-11-03T21:54:48.270Z,1.40
2023-11-03T21:57:15.211Z,1.40
2023-11-03T21:59:42.079Z,1.50
2023-11-03T22:02:08.897Z,1.70
2023-11-03T22:04:37.001Z,1.40
2023-11-03T22:07:08.402Z,1.67
2023-11-03T22:09:36.794Z,1.83
2023-11-03T22:12:03.863Z,1.80
2023-11-03T22:14:31.601Z,1.48
2023-11-03T22:16:58.576Z,1.80
2023-11-03T22:19:25.633Z,1.17
2023-11-03T22:21:52.795Z,1.48
2023-11-03T22:24:19.830Z,1.30
2023-11-03T22:26:49.525Z,1.63
2023-11-03T22:29:17.547Z,1.70
2023-11-03T22:31:50.698Z,1.58
2023-11-03T22:34:20.201Z,1.40
2023-11-03T22:36:49.979Z,1.60
2023-11-03T22:39:21.166Z,1.50
2023-11-03T22:41:48.594Z,1.85
2023-11-03T22:44:15.861Z,1.55
2023-11-03T22:46:42.731Z,1.33
2023-11-03T22:49:10.062Z,1.75
2023-11-03T22:51:37.438Z,1.70
2023-11-03T22:54:04.874Z,1.80
2023-11-03T22:56:32.370Z,1.50
2023-11-03T22:58:59.372Z,1.50
2023-11-03T23:01:26.192Z,1.50
2023-11-03T23:03:53.072Z,1.83
2023-11-03T23:06:21.067Z,1.80
2023-11-03T23:08:48.349Z,1.65
2023-11-03T23:11:17.073Z,1.50
2023-11-03T23:13:44.511Z,1.60
2023-11-03T23:16:11.539Z,1.63
2023-11-03T23:18:38.604Z,1.70
2023-11-03T23:21:06.757Z,1.50
2023-11-03T23:23:34.342Z,1.55
2023-11-03T23:26:01.191Z,1.52
2023-11-03T23:28:28.034Z,1.67
2023-11-03T23:30:54.891Z,1.73
2023-11-03T23:33:22.892Z,1.60
2023-11-03T23:35:49.862Z,1.80
2023-11-03T23:38:16.705Z,1.75
2023-11-03T23:40:44.469Z,1.65
2023-11-03T23:43:11.357Z,1.67
2023-11-03T23:45:38.446Z,1.77
2023-11-03T23:48:06.438Z,1.65
2023-11-03T23:50:33.269Z,1.70
2023-11-03T23:53:00.225Z,1.67
2023-11-03T23:55:27.073Z,2.10
2023-11-03T23:57:54.398Z,1.75
